createdAt,value
2019-04-06T00:03:09.522Z,85.81
2019-04-06T00:05:36.314Z,85.89
2019-04-06T00:08:03.093Z,85.90
2019-04-06T00:10:29.866Z,86.18
2019-04-06T00:12:56.635Z,86.39
2019-04-06T00:15:23.330Z,86.14
2019-04-06T00:17:49.995Z,85.77
2019-04-06T00:20:16.794Z,85.30
2019-04-06T00:22:43.464Z,85.37
2019-04-06T00:25:10.272Z,85.80
2019-04-06T00:27:36.936Z,86.07
2019-04-06T00:30:04.384Z,86.36
2019-04-06T00:32:56.399Z,86.55
2019-04-06T00:35:23.184Z,86.53
2019-04-06T00:37:49.947Z,86.38
2019-04-06T00:40:17.096Z,86.47
2019-04-06T00:42:43.772Z,85.93
2019-04-06T00:45:10.676Z,85.86
2019-04-06T00:47:37.327Z,85.75
2019-04-06T00:50:04.931Z,85.81
2019-04-06T00:52:31.695Z,85.91
2019-04-06T00:54:58.392Z,86.00
2019-04-06T00:57:24.956Z,85.58
2019-04-06T00:59:51.671Z,85.20
2019-04-06T01:02:18.530Z,85.26
2019-04-06T01:05:05.067Z,85.42
2019-04-06T01:07:31.616Z,84.92
2019-04-06T01:09:58.304Z,85.45
2019-04-06T01:12:24.880Z,85.40
2019-04-06T01:14:51.681Z,85.16
2019-04-06T01:17:18.446Z,85.34
2019-04-06T01:19:45.233Z,85.84
2019-04-06T01:22:12.004Z,86.26
2019-04-06T01:24:38.767Z,86.28
2019-04-06T01:27:05.458Z,86.53
2019-04-06T01:29:32.226Z,86.64
2019-04-06T01:31:59.031Z,86.23
2019-04-06T01:34:25.599Z,85.84
2019-04-06T01:36:52.322Z,86.01
2019-04-06T01:39:18.962Z,86.04
2019-04-06T01:41:45.760Z,85.97
2019-04-06T01:44:12.604Z,86.14
2019-04-06T01:46:39.390Z,85.83
2019-04-06T01:49:06.083Z,86.04
2019-04-06T01:51:32.870Z,86.07
2019-04-06T01:54:00.036Z,85.59
2019-04-06T01:56:27.129Z,85.52
2019-04-06T01:58:53.690Z,85.75
2019-04-06T02:01:27.088Z,85.70
2019-04-06T02:03:54.235Z,85.68
2019-04-06T02:06:21.028Z,85.47
2019-04-06T02:08:47.704Z,85.78
2019-04-06T02:11:14.501Z,85.89
2019-04-06T02:13:41.176Z,85.96
2019-04-06T02:16:07.922Z,86.03
2019-04-06T02:18:34.598Z,86.10
2019-04-06T02:21:01.485Z,85.90
2019-04-06T02:23:28.051Z,85.82
2019-04-06T02:25:54.630Z,85.92
2019-04-06T02:28:21.245Z,85.58
2019-04-06T02:31:07.094Z,85.14
2019-04-06T02:33:45.039Z,84.85
2019-04-06T02:36:20.860Z,84.86
2019-04-06T02:38:53.301Z,85.12
2019-04-06T02:41:39.746Z,85.46
2019-04-06T02:44:06.424Z,85.50
2019-04-06T02:46:33.221Z,85.20
2019-04-06T02:49:00.299Z,85.19
2019-04-06T02:51:27.075Z,85.33
2019-04-06T02:53:53.872Z,85.59
2019-04-06T02:56:20.967Z,86.11
2019-04-06T02:58:47.667Z,85.73
2019-04-06T03:01:14.504Z,85.45
2019-04-06T03:03:41.676Z,85.12
2019-04-06T03:06:08.479Z,85.54
2019-04-06T03:08:35.259Z,86.14
2019-04-06T03:11:02.249Z,86.03
2019-04-06T03:13:29.081Z,86.17
2019-04-06T03:15:55.892Z,85.76
2019-04-06T03:18:22.612Z,85.60
2019-04-06T03:20:49.515Z,86.03
2019-04-06T03:23:16.528Z,85.87
2019-04-06T03:25:43.391Z,86.03
2019-04-06T03:28:10.076Z,85.65
2019-04-06T03:30:37.171Z,85.74
2019-04-06T03:33:04.186Z,86.18
2019-04-06T03:35:31.092Z,86.19
2019-04-06T03:37:58.741Z,85.88
2019-04-06T03:40:25.564Z,85.87
2019-04-06T03:42:52.215Z,85.97
2019-04-06T03:45:18.898Z,86.03
2019-04-06T03:47:45.622Z,86.13
2019-04-06T03:50:12.507Z,85.81
2019-04-06T03:52:39.316Z,85.48
2019-04-06T03:55:07.303Z,85.25
2019-04-06T03:57:34.202Z,85.30
2019-04-06T04:00:00.863Z,85.54
2019-04-06T04:02:27.471Z,85.91
2019-04-06T04:04:54.177Z,85.91
2019-04-06T04:07:21.014Z,86.23
2019-04-06T04:09:47.710Z,85.68
2019-04-06T04:12:14.413Z,85.69
2019-04-06T04:14:40.995Z,85.12
2019-04-06T04:17:07.711Z,85.16
2019-04-06T04:19:34.493Z,85.19
2019-04-06T04:22:01.181Z,85.27
2019-04-06T04:24:28.173Z,85.22
2019-04-06T04:26:54.894Z,85.43
2019-04-06T04:29:21.642Z,85.63
2019-04-06T04:31:48.426Z,85.99
2019-04-06T04:34:15.290Z,85.91
2019-04-06T04:36:42.065Z,85.63
2019-04-06T04:39:09.078Z,85.77
2019-04-06T04:41:39.022Z,85.89
2019-04-06T04:44:04.589Z,86.10
2019-04-06T04:46:31.264Z,86.01
2019-04-06T04:48:57.776Z,85.45
2019-04-06T04:51:24.536Z,85.68
2019-04-06T04:53:51.233Z,85.24
2019-04-06T04:56:18.051Z,85.20
2019-04-06T04:58:44.601Z,85.30
2019-04-06T05:01:11.190Z,85.11
2019-04-06T05:03:37.994Z,84.82
2019-04-06T05:06:04.779Z,84.35
2019-04-06T05:08:31.474Z,84.45
2019-04-06T05:10:58.154Z,84.50
2019-04-06T05:13:24.973Z,84.55
2019-04-06T05:16:20.451Z,84.71
2019-04-06T05:18:47.148Z,84.50
2019-04-06T05:21:13.938Z,84.63
2019-04-06T05:23:40.868Z,84.33
2019-04-06T05:26:08.042Z,84.10
2019-04-06T05:28:34.845Z,83.65
2019-04-06T05:31:01.620Z,83.27
2019-04-06T05:33:28.815Z,83.74
2019-04-06T05:35:56.040Z,83.73
2019-04-06T05:38:22.810Z,83.48
2019-04-06T05:40:49.981Z,83.54
2019-04-06T05:43:16.885Z,83.89
2019-04-06T05:45:44.000Z,84.00
2019-04-06T05:48:10.680Z,84.03
2019-04-06T05:50:37.468Z,83.51
2019-04-06T05:53:04.257Z,83.06
2019-04-06T05:55:31.467Z,82.65
2019-04-06T05:58:03.922Z,82.02
2019-04-06T06:00:27.052Z,81.87
2019-04-06T06:02:54.006Z,81.70
2019-04-06T06:05:20.997Z,82.03
2019-04-06T06:07:48.031Z,82.04
2019-04-06T06:10:14.901Z,82.12
2019-04-06T06:12:41.666Z,82.00
2019-04-06T06:15:08.676Z,81.29
2019-04-06T06:17:35.450Z,81.34
2019-04-06T06:20:02.589Z,81.53
2019-04-06T06:22:29.190Z,81.43
2019-04-06T06:24:55.778Z,81.04
2019-04-06T06:27:22.970Z,80.48
2019-04-06T06:29:50.361Z,80.25
2019-04-06T06:32:17.036Z,79.66
2019-04-06T06:34:43.834Z,79.26
2019-04-06T06:37:10.628Z,79.13
2019-04-06T06:39:37.436Z,79.29
2019-04-06T06:42:04.203Z,79.08
2019-04-06T06:44:30.905Z,79.01
2019-04-06T06:46:57.861Z,79.12
2019-04-06T06:49:24.867Z,77.94
2019-04-06T06:51:51.706Z,78.01
2019-04-06T06:54:18.450Z,76.35
2019-04-06T06:56:45.245Z,75.50
2019-04-06T06:59:13.031Z,73.44
2019-04-06T07:01:39.753Z,73.08
2019-04-06T07:04:06.452Z,72.63
2019-04-06T07:06:33.223Z,71.34
2019-04-06T07:08:59.947Z,70.21
2019-04-06T07:11:26.742Z,68.45
2019-04-06T07:13:53.580Z,66.96
2019-04-06T07:16:20.245Z,67.89
2019-04-06T07:18:47.302Z,68.05
2019-04-06T07:21:16.586Z,66.19
2019-04-06T07:23:42.647Z,63.09
2019-04-06T07:26:09.529Z,57.16
2019-04-06T07:28:38.438Z,54.56
2019-04-06T07:31:04.908Z,52.50
2019-04-06T07:33:31.484Z,57.81
2019-04-06T07:35:58.273Z,57.00
2019-04-06T07:38:25.203Z,56.78
2019-04-06T07:40:51.970Z,55.83
2019-04-06T07:43:18.741Z,57.88
2019-04-06T07:45:45.570Z,57.46
2019-04-06T07:48:12.251Z,58.00
2019-04-06T07:50:38.961Z,58.35
2019-04-06T07:53:05.736Z,59.70
2019-04-06T07:55:32.792Z,59.41
2019-04-06T07:57:59.542Z,62.07
2019-04-06T08:00:26.305Z,61.08
2019-04-06T08:02:52.980Z,59.40
2019-04-06T08:05:19.685Z,57.48
2019-04-06T08:07:46.626Z,57.57
2019-04-06T08:10:13.467Z,56.58
2019-04-06T08:12:40.144Z,55.22
2019-04-06T08:15:07.266Z,55.79
2019-04-06T08:17:34.224Z,54.67
2019-04-06T08:20:01.266Z,54.04
2019-04-06T08:22:27.848Z,54.15
2019-04-06T08:24:54.717Z,54.98
2019-04-06T08:27:21.537Z,52.97
2019-04-06T08:29:48.332Z,51.79
2019-04-06T08:32:15.008Z,52.26
2019-04-06T08:34:41.603Z,51.49
2019-04-06T08:37:08.386Z,50.82
2019-04-06T08:39:35.565Z,48.47
2019-04-06T08:42:03.066Z,48.57
2019-04-06T08:44:30.118Z,45.66
2019-04-06T08:46:56.936Z,43.94
2019-04-06T08:49:23.983Z,41.14
2019-04-06T08:51:50.687Z,39.48
2019-04-06T08:54:17.532Z,38.26
2019-04-06T08:56:44.194Z,35.86
2019-04-06T08:59:13.188Z,33.93
2019-04-06T09:01:39.588Z,32.36
2019-04-06T09:04:06.279Z,29.39
2019-04-06T09:06:32.983Z,28.91
2019-04-06T09:08:59.757Z,26.85
2019-04-06T09:11:26.568Z,25.62
2019-04-06T09:13:53.247Z,22.79
2019-04-06T09:16:19.912Z,20.98
2019-04-06T09:18:48.691Z,22.39
2019-04-06T09:21:22.971Z,24.50
2019-04-06T09:23:49.671Z,24.09
2019-04-06T09:26:16.592Z,23.87
2019-04-06T09:28:43.544Z,21.24
2019-04-06T09:31:10.241Z,20.78
2019-04-06T09:33:36.813Z,21.48
2019-04-06T09:36:04.031Z,21.21
2019-04-06T09:38:31.104Z,19.51
2019-04-06T09:41:05.648Z,18.30
2019-04-06T09:43:34.445Z,18.70
2019-04-06T09:46:17.522Z,19.59
2019-04-06T09:48:58.818Z,19.49
2019-04-06T09:51:45.243Z,17.82
2019-04-06T09:54:37.341Z,17.95
2019-04-06T09:57:23.787Z,18.25
2019-04-06T10:00:05.671Z,17.81
2019-04-06T10:02:55.616Z,19.71
2019-04-06T10:05:34.029Z,22.50
2019-04-06T10:08:17.868Z,20.73
2019-04-06T10:11:10.421Z,17.61
2019-04-06T10:13:51.447Z,16.38
2019-04-06T10:16:43.175Z,19.44
2019-04-06T10:19:26.194Z,18.94
2019-04-06T10:22:18.969Z,18.34
2019-04-06T10:25:07.714Z,17.00
2019-04-06T10:27:54.068Z,18.34
2019-04-06T10:30:39.402Z,19.76
2019-04-06T10:33:25.999Z,19.63
2019-04-06T10:36:15.397Z,19.50
2019-04-06T10:39:04.570Z,17.68
2019-04-06T10:41:54.077Z,19.19
2019-04-06T10:44:40.428Z,19.00
2019-04-06T10:47:18.318Z,18.80
2019-04-06T10:49:59.403Z,18.61
2019-04-06T10:52:48.702Z,18.07
2019-04-06T10:55:27.304Z,18.60
2019-04-06T10:58:05.312Z,24.08
2019-04-06T11:01:00.441Z,21.59
2019-04-06T11:03:32.894Z,18.50
2019-04-06T11:06:05.044Z,17.57
2019-04-06T11:08:47.576Z,15.42
2019-04-06T11:11:32.375Z,16.32
2019-04-06T11:14:10.321Z,14.59
2019-04-06T11:16:53.766Z,13.98
2019-04-06T11:19:39.652Z,14.60
2019-04-06T11:22:23.717Z,16.92
2019-04-06T11:25:08.567Z,14.85
2019-04-06T11:27:44.619Z,16.10
2019-04-06T11:30:27.357Z,16.66
2019-04-06T11:33:13.969Z,16.16
2019-04-06T11:36:00.252Z,15.00
2019-04-06T11:38:34.386Z,17.64
2019-04-06T11:41:16.806Z,17.81
2019-04-06T11:44:08.912Z,16.33
2019-04-06T11:47:13.244Z,16.52
2019-04-06T11:50:03.835Z,19.52
2019-04-06T11:52:51.591Z,17.23
2019-04-06T11:55:36.544Z,17.66
2019-04-06T11:58:17.228Z,17.40
2019-04-06T12:01:09.344Z,18.09
2019-04-06T12:03:55.789Z,19.76
2019-04-06T12:06:32.022Z,16.91
2019-04-06T12:09:18.358Z,18.12
2019-04-06T12:12:09.664Z,18.89
2019-04-06T12:14:54.602Z,18.01
2019-04-06T12:17:38.046Z,17.40
2019-04-06T12:20:16.462Z,18.04
2019-04-06T12:22:51.071Z,18.81
2019-04-06T12:25:37.009Z,17.04
2019-04-06T12:28:11.234Z,15.63
2019-04-06T12:30:49.610Z,15.00
2019-04-06T12:33:44.381Z,15.05
2019-04-06T12:36:36.466Z,15.80
2019-04-06T12:39:27.938Z,17.17
2019-04-06T12:42:12.651Z,15.40
2019-04-06T12:45:07.280Z,15.76
2019-04-06T12:47:52.685Z,16.11
2019-04-06T12:50:41.772Z,15.78
2019-04-06T12:53:28.216Z,15.98
2019-04-06T12:56:11.666Z,14.68
2019-04-06T12:59:04.142Z,16.25
2019-04-06T13:02:05.116Z,16.34
2019-04-06T13:04:41.710Z,15.90
2019-04-06T13:07:26.413Z,15.93
2019-04-06T13:10:00.758Z,15.26
2019-04-06T13:12:47.359Z,19.12
2019-04-06T13:15:25.945Z,20.08
2019-04-06T13:18:12.207Z,19.90
2019-04-06T13:21:10.683Z,19.92
2019-04-06T13:24:00.050Z,16.79
2019-04-06T13:27:01.293Z,16.79
2019-04-06T13:29:46.773Z,18.55
2019-04-06T13:32:35.825Z,16.92
2019-04-06T13:35:11.570Z,17.16
2019-04-06T13:37:53.768Z,16.95
2019-04-06T13:40:42.971Z,17.71
2019-04-06T13:43:35.847Z,20.11
2019-04-06T13:46:11.657Z,18.29
2019-04-06T13:49:00.827Z,19.12
2019-04-06T13:51:40.400Z,18.61
2019-04-06T13:54:26.892Z,18.42
2019-04-06T13:57:08.984Z,18.30
2019-04-06T13:59:43.822Z,17.80
2019-04-06T14:02:18.256Z,15.48
2019-04-06T14:05:02.982Z,14.44
2019-04-06T14:07:40.512Z,12.89
2019-04-06T14:10:26.393Z,12.88
2019-04-06T14:13:19.040Z,14.74
2019-04-06T14:15:55.634Z,16.42
2019-04-06T14:18:42.731Z,15.58
2019-04-06T14:21:35.414Z,16.56
2019-04-06T14:24:20.933Z,20.17
2019-04-06T14:27:00.337Z,18.89
2019-04-06T14:29:47.110Z,19.86
2019-04-06T14:32:29.104Z,20.44
2019-04-06T14:35:15.672Z,21.34
2019-04-06T14:37:53.913Z,22.82
2019-04-06T14:40:43.636Z,22.25
2019-04-06T14:43:45.120Z,21.72
2019-04-06T14:46:34.613Z,23.45
2019-04-06T14:49:29.918Z,22.90
2019-04-06T14:52:08.164Z,21.85
2019-04-06T14:54:47.215Z,22.63
2019-04-06T14:57:38.839Z,22.93
2019-04-06T15:00:20.323Z,23.67
2019-04-06T15:03:10.789Z,25.93
2019-04-06T15:05:47.802Z,24.54
2019-04-06T15:08:35.057Z,27.20
2019-04-06T15:11:21.709Z,28.29
2019-04-06T15:14:16.855Z,27.11
2019-04-06T15:16:58.085Z,25.35
2019-04-06T15:19:37.772Z,26.89
2019-04-06T15:22:24.276Z,28.07
2019-04-06T15:25:09.041Z,28.20
2019-04-06T15:27:45.372Z,29.05
2019-04-06T15:30:30.535Z,26.83
2019-04-06T15:33:08.862Z,28.13
2019-04-06T15:35:42.900Z,29.20
2019-04-06T15:38:27.668Z,30.76
2019-04-06T15:41:13.111Z,31.65
2019-04-06T15:43:48.063Z,33.61
2019-04-06T15:46:23.229Z,35.59
2019-04-06T15:49:09.532Z,35.42
2019-04-06T15:52:15.341Z,35.99
2019-04-06T15:54:48.265Z,34.84
2019-04-06T15:57:26.075Z,33.48
2019-04-06T16:00:11.755Z,33.66
2019-04-06T16:03:00.439Z,31.78
2019-04-06T16:05:45.788Z,32.31
2019-04-06T16:08:31.048Z,32.87
2019-04-06T16:11:16.249Z,32.76
2019-04-06T16:13:52.040Z,32.88
2019-04-06T16:16:44.027Z,34.62
2019-04-06T16:19:20.467Z,36.41
2019-04-06T16:21:55.007Z,37.90
2019-04-06T16:24:47.398Z,38.22
2019-04-06T16:27:32.639Z,39.31
2019-04-06T16:30:21.905Z,40.21
2019-04-06T16:33:09.113Z,39.18
2019-04-06T16:36:01.959Z,37.63
2019-04-06T16:38:57.241Z,38.42
2019-04-06T16:41:46.585Z,37.97
2019-04-06T16:44:26.835Z,37.10
2019-04-06T16:47:11.773Z,37.05
2019-04-06T16:49:57.075Z,37.41
2019-04-06T16:52:49.196Z,37.76
2019-04-06T16:55:29.391Z,37.74
2019-04-06T16:58:15.907Z,37.68
2019-04-06T17:00:52.435Z,39.26
2019-04-06T17:03:30.741Z,40.34
2019-04-06T17:06:18.695Z,41.08
2019-04-06T17:08:55.286Z,41.80
2019-04-06T17:11:40.018Z,43.21
2019-04-06T17:14:14.766Z,43.70
2019-04-06T17:16:57.267Z,44.61
2019-04-06T17:19:46.273Z,46.15
2019-04-06T17:22:22.545Z,47.46
2019-04-06T17:25:09.222Z,47.80
2019-04-06T17:27:46.707Z,47.30
2019-04-06T17:30:18.942Z,48.14
2019-04-06T17:32:59.375Z,47.82
2019-04-06T17:35:45.788Z,49.03
2019-04-06T17:38:34.796Z,49.59
2019-04-06T17:41:21.729Z,48.91
2019-04-06T17:44:09.136Z,50.38
2019-04-06T17:46:51.670Z,50.58
2019-04-06T17:49:30.324Z,50.22
2019-04-06T17:52:17.681Z,50.70
2019-04-06T17:55:11.294Z,51.38
2019-04-06T17:57:56.223Z,51.70
2019-04-06T18:00:50.699Z,52.08
2019-04-06T18:03:39.755Z,52.54
2019-04-06T18:06:30.147Z,52.81
2019-04-06T18:09:07.718Z,53.82
2019-04-06T18:11:52.941Z,54.10
2019-04-06T18:14:19.961Z,55.15
2019-04-06T18:16:46.959Z,55.69
2019-04-06T18:19:13.731Z,56.39
2019-04-06T18:21:40.529Z,56.50
2019-04-06T18:24:07.297Z,57.20
2019-04-06T18:26:33.999Z,57.64
2019-04-06T18:29:00.791Z,58.35
2019-04-06T18:31:50.188Z,58.22
2019-04-06T18:34:17.352Z,58.27
2019-04-06T18:36:57.024Z,58.68
2019-04-06T18:39:24.206Z,59.10
2019-04-06T18:41:51.095Z,60.23
2019-04-06T18:44:17.859Z,60.51
2019-04-06T18:46:45.656Z,60.54
2019-04-06T18:49:12.530Z,60.45
2019-04-06T18:51:39.141Z,61.20
2019-04-06T18:54:08.318Z,61.17
2019-04-06T18:56:34.649Z,60.78
2019-04-06T18:59:01.421Z,60.45
2019-04-06T19:01:28.226Z,60.70
2019-04-06T19:03:55.561Z,60.00
2019-04-06T19:06:22.795Z,59.92
2019-04-06T19:08:49.467Z,59.08
2019-04-06T19:11:16.394Z,58.77
2019-04-06T19:13:43.029Z,58.87
2019-04-06T19:16:09.799Z,58.61
2019-04-06T19:18:36.500Z,58.76
2019-04-06T19:21:03.280Z,58.48
2019-04-06T19:23:30.074Z,58.27
2019-04-06T19:25:56.840Z,59.15
2019-04-06T19:28:23.531Z,58.89
2019-04-06T19:30:50.206Z,59.52
2019-04-06T19:33:23.286Z,60.18
2019-04-06T19:35:46.163Z,60.44
2019-04-06T19:38:13.122Z,60.36
2019-04-06T19:40:39.880Z,60.02
2019-04-06T19:43:06.735Z,60.24
2019-04-06T19:45:33.750Z,59.74
2019-04-06T19:48:00.356Z,59.61
2019-04-06T19:50:27.198Z,60.10
2019-04-06T19:52:53.989Z,60.76
2019-04-06T19:55:21.257Z,60.15
2019-04-06T19:57:48.278Z,59.89
2019-04-06T20:00:15.446Z,60.05
2019-04-06T20:02:42.318Z,60.36
2019-04-06T20:05:09.640Z,60.49
2019-04-06T20:07:36.561Z,60.47
2019-04-06T20:10:04.321Z,60.30
2019-04-06T20:12:31.104Z,60.69
2019-04-06T20:14:58.299Z,61.08
2019-04-06T20:17:25.125Z,63.04
2019-04-06T20:19:52.029Z,64.35
2019-04-06T20:22:19.154Z,65.54
2019-04-06T20:24:46.051Z,66.27
2019-04-06T20:27:12.830Z,67.38
2019-04-06T20:29:39.777Z,67.50
2019-04-06T20:32:06.784Z,66.83
2019-04-06T20:34:33.565Z,66.83
2019-04-06T20:37:00.368Z,66.49
2019-04-06T20:39:27.165Z,66.41
2019-04-06T20:41:54.112Z,66.14
2019-04-06T20:44:21.099Z,66.57
2019-04-06T20:46:47.879Z,66.77
2019-04-06T20:49:14.558Z,67.02
2019-04-06T20:51:41.330Z,67.66
2019-04-06T20:54:09.051Z,67.65
2019-04-06T20:56:36.191Z,67.79
2019-04-06T20:59:03.087Z,68.40
2019-04-06T21:01:30.149Z,68.48
2019-04-06T21:04:01.068Z,68.86
2019-04-06T21:06:25.308Z,68.84
2019-04-06T21:08:52.522Z,69.44
2019-04-06T21:11:19.565Z,69.61
2019-04-06T21:13:46.365Z,70.23
2019-04-06T21:16:13.411Z,70.56
2019-04-06T21:18:40.053Z,70.04
2019-04-06T21:21:06.862Z,69.73
2019-04-06T21:23:33.860Z,70.13
2019-04-06T21:26:00.667Z,69.62
2019-04-06T21:28:27.427Z,69.50
2019-04-06T21:30:54.341Z,69.83
2019-04-06T21:33:20.883Z,69.65
2019-04-06T21:35:47.681Z,69.54
2019-04-06T21:38:14.356Z,70.05
2019-04-06T21:40:41.151Z,69.67
2019-04-06T21:43:07.927Z,68.22
2019-04-06T21:45:34.634Z,68.30
2019-04-06T21:48:01.742Z,68.36
2019-04-06T21:50:28.713Z,68.69
2019-04-06T21:52:55.894Z,69.34
2019-04-06T21:55:22.936Z,69.74
2019-04-06T21:57:49.573Z,70.18
2019-04-06T22:00:24.188Z,70.10
2019-04-06T22:02:51.388Z,70.50
2019-04-06T22:05:18.681Z,71.03
2019-04-06T22:07:50.195Z,71.18
2019-04-06T22:10:14.146Z,71.41
2019-04-06T22:12:41.483Z,71.91
2019-04-06T22:17:56.684Z,73.13
2019-04-06T22:20:24.077Z,73.93
2019-04-06T22:22:51.042Z,73.89
2019-04-06T22:25:17.757Z,74.25
2019-04-06T22:27:44.934Z,74.43
2019-04-06T22:30:12.261Z,74.86
2019-04-06T22:32:39.329Z,73.72
2019-04-06T22:35:07.275Z,74.07
2019-04-06T22:37:34.313Z,74.02
2019-04-06T22:42:27.363Z,74.39
2019-04-06T22:44:54.467Z,73.64
2019-04-06T22:47:21.296Z,73.78
2019-04-06T22:49:48.196Z,74.12
2019-04-06T22:52:14.873Z,74.33
2019-04-06T22:54:41.666Z,74.41
2019-04-06T22:57:08.231Z,73.61
2019-04-06T22:59:34.810Z,72.48
2019-04-06T23:02:01.528Z,73.08
2019-04-06T23:04:57.602Z,73.24
2019-04-06T23:07:25.331Z,73.87
2019-04-06T23:09:52.392Z,74.28
2019-04-06T23:12:18.974Z,74.32
2019-04-06T23:14:45.759Z,74.38
2019-04-06T23:17:12.731Z,72.83
2019-04-06T23:19:39.432Z,73.30
2019-04-06T23:22:06.205Z,73.83
2019-04-06T23:24:33.013Z,74.36
2019-04-06T23:26:59.758Z,74.21
2019-04-06T23:29:26.892Z,74.24
2019-04-06T23:31:54.376Z,74.11
2019-04-06T23:34:21.262Z,74.14
2019-04-06T23:36:48.046Z,73.94
2019-04-06T23:39:14.854Z,74.56
2019-04-06T23:41:41.622Z,75.28
2019-04-06T23:44:08.805Z,75.30
2019-04-06T23:46:35.716Z,74.20
2019-04-06T23:49:02.742Z,74.47
2019-04-06T23:51:30.417Z,75.77
2019-04-06T23:53:57.440Z,75.73
2019-04-06T23:56:24.234Z,76.04
2019-04-06T23:58:51.025Z,76.34
